Time;durP1;ratioP1;P1;durP2;ratioP2;P2;SDS_P1;SDS_P2;PMS_P1;PMS_P2;Temp;Humidity;BMP_temperature;BMP_pressure;BME280_temperature;BME280_humidity;BME280_pressure;Samples;Min_cycle;Max_cycle;Signal;HPM_P1;HPM_P2
2021/01/10 00:01:34;;;;;;;9.48;1.25;;;;;;;;;;6159890;23;20001;-46
2021/01/10 00:04:01;;;;;;;15.50;1.52;;;;;;;;;;6184835;23;20076;-46
2021/01/10 00:06:28;;;;;;;9.98;1.75;;;;;;;;;;6185291;23;20029;-44
2021/01/10 00:08:55;;;;;;;7.82;1.45;;;;;;;;;;6159544;23;20009;-43
2021/01/10 00:11:22;;;;;;;10.35;1.75;;;;;;;;;;6185446;23;20452;-46
2021/01/10 00:13:49;;;;;;;5.07;1.60;;;;;;;;;;6184297;23;20080;-44
2021/01/10 00:16:16;;;;;;;11.30;1.67;;;;;;;;;;6185004;23;20038;-44
2021/01/10 00:18:43;;;;;;;4.72;1.60;;;;;;;;;;6185119;23;20005;-48
2021/01/10 00:21:10;;;;;;;8.98;1.35;;;;;;;;;;6185395;23;20005;-46
2021/01/10 00:23:37;;;;;;;7.50;1.50;;;;;;;;;;6159612;23;20360;-45
2021/01/10 00:26:04;;;;;;;12.98;1.80;;;;;;;;;;6159056;23;20001;-43
2021/01/10 00:28:32;;;;;;;3.08;1.48;;;;;;;;;;6185258;23;20021;-45
2021/01/10 00:30:59;;;;;;;7.57;1.85;;;;;;;;;;6185239;23;20460;-47
2021/01/10 00:33:26;;;;;;;6.68;1.88;;;;;;;;;;6185240;23;20013;-44
2021/01/10 00:35:53;;;;;;;5.78;1.88;;;;;;;;;;6185095;23;20005;-45
2021/01/10 00:38:20;;;;;;;8.73;1.42;;;;;;;;;;6185367;23;20008;-43
2021/01/10 00:40:47;;;;;;;4.03;1.67;;;;;;;;;;6184998;23;20417;-46
2021/01/10 00:43:14;;;;;;;3.47;1.38;;;;;;;;;;6185179;23;20511;-45
2021/01/10 00:45:41;;;;;;;5.78;1.92;;;;;;;;;;6184980;23;20020;-48
2021/01/10 00:48:08;;;;;;;10.73;1.50;;;;;;;;;;6184821;23;20075;-51
2021/01/10 00:50:35;;;;;;;6.82;1.63;;;;;;;;;;6158962;23;20009;-45
2021/01/10 00:53:05;;;;;;;6.95;1.77;;;;;;;;;;6184671;23;20499;-45
2021/01/10 00:55:32;;;;;;;7.28;2.10;;;;;;;;;;6185472;23;20326;-50
2021/01/10 00:57:59;;;;;;;8.13;1.80;;;;;;;;;;6158517;23;20009;-45
2021/01/10 01:00:26;;;;;;;9.88;2.22;;;;;;;;;;6185084;23;20004;-44
2021/01/10 01:02:53;;;;;;;9.55;3.05;;;;;;;;;;6185050;23;20005;-45
2021/01/10 01:05:20;;;;;;;9.45;2.00;;;;;;;;;;6184966;23;20060;-44
2021/01/10 01:07:47;;;;;;;9.73;2.20;;;;;;;;;;6184944;23;20032;-49
2021/01/10 01:10:14;;;;;;;9.23;2.20;;;;;;;;;;6185225;23;20076;-45
2021/01/10 01:12:42;;;;;;;9.68;2.63;;;;;;;;;;6184668;23;20005;-46
2021/01/10 01:15:09;;;;;;;6.93;2.00;;;;;;;;;;6158468;23;20032;-55
2021/01/10 01:17:37;;;;;;;9.40;2.17;;;;;;;;;;6184774;23;20005;-45
2021/01/10 01:20:04;;;;;;;16.70;2.72;;;;;;;;;;6158433;23;20005;-49
2021/01/10 01:22:31;;;;;;;9.77;2.25;;;;;;;;;;6185100;23;20043;-49
2021/01/10 01:24:58;;;;;;;12.20;2.58;;;;;;;;;;6159011;23;20307;-46
2021/01/10 01:27:25;;;;;;;9.98;3.03;;;;;;;;;;6184736;23;20035;-47
2021/01/10 01:29:56;;;;;;;8.35;2.70;;;;;;;;;;6184830;23;20021;-46
2021/01/10 01:32:23;;;;;;;10.40;2.87;;;;;;;;;;6184741;23;20147;-46
2021/01/10 01:34:51;;;;;;;11.40;3.20;;;;;;;;;;6184898;23;20005;-47
2021/01/10 01:37:18;;;;;;;10.15;2.33;;;;;;;;;;6184259;23;20088;-49
2021/01/10 01:39:45;;;;;;;19.27;4.80;;;;;;;;;;6185018;23;20358;-47
2021/01/10 01:42:13;;;;;;;22.42;3.42;;;;;;;;;;6184765;23;20084;-48
2021/01/10 01:44:40;;;;;;;7.35;3.03;;;;;;;;;;6184529;23;20029;-60
2021/01/10 01:47:08;;;;;;;8.93;3.53;;;;;;;;;;6184821;23;20004;-47
2021/01/10 01:49:35;;;;;;;9.40;2.97;;;;;;;;;;6184714;23;20035;-60
2021/01/10 01:52:02;;;;;;;14.88;4.03;;;;;;;;;;6184683;23;20013;-49
2021/01/10 01:54:29;;;;;;;24.77;4.03;;;;;;;;;;6184509;23;20374;-55
2021/01/10 01:56:56;;;;;;;12.57;3.72;;;;;;;;;;6184670;23;20005;-46
2021/01/10 01:59:23;;;;;;;25.08;3.58;;;;;;;;;;6184371;23;20001;-46
2021/01/10 02:01:50;;;;;;;9.98;3.65;;;;;;;;;;6184445;23;20001;-48
2021/01/10 02:04:23;;;;;;;10.23;3.60;;;;;;;;;;6184685;23;20007;-47
2021/01/10 02:07:05;;;;;;;11.35;4.07;;;;;;;;;;6184681;23;20001;-47
2021/01/10 02:09:35;;;;;;;13.18;4.15;;;;;;;;;;6184675;23;20042;-46
2021/01/10 02:12:03;;;;;;;10.95;3.35;;;;;;;;;;6184343;23;20080;-48
2021/01/10 02:14:33;;;;;;;9.20;3.22;;;;;;;;;;6184815;23;20159;-46
2021/01/10 02:17:01;;;;;;;14.02;4.03;;;;;;;;;;6184467;23;20068;-46
2021/01/10 02:19:36;;;;;;;17.02;3.97;;;;;;;;;;6184336;23;20433;-51
2021/01/10 02:22:05;;;;;;;13.32;3.92;;;;;;;;;;6158141;23;20075;-45
2021/01/10 02:24:35;;;;;;;14.95;3.72;;;;;;;;;;6184531;23;20005;-48
2021/01/10 02:27:03;;;;;;;11.65;3.97;;;;;;;;;;6157990;23;20008;-50
2021/01/10 02:29:31;;;;;;;7.07;2.90;;;;;;;;;;6184010;23;20021;-50
2021/01/10 02:31:59;;;;;;;10.32;3.08;;;;;;;;;;6184400;23;20005;-52
2021/01/10 02:34:27;;;;;;;5.65;2.65;;;;;;;;;;6184467;23;20005;-49
2021/01/10 02:37:00;;;;;;;10.57;3.42;;;;;;;;;;6184133;23;20008;-49
2021/01/10 02:39:34;;;;;;;11.40;3.08;;;;;;;;;;6184322;23;20437;-51
2021/01/10 02:42:07;;;;;;;14.73;3.25;;;;;;;;;;6184387;23;20007;-54
2021/01/10 02:44:39;;;;;;;11.82;3.20;;;;;;;;;;6184750;23;20414;-45
2021/01/10 02:47:07;;;;;;;;;;;;;;;;;;6184880;23;20012;-46
2021/01/10 02:49:34;;;;;;;11.68;3.40;;;;;;;;;;6184681;23;19900;-50
2021/01/10 02:52:02;;;;;;;8.80;2.53;;;;;;;;;;6183081;23;20005;-48
2021/01/10 02:54:29;;;;;;;8.60;2.60;;;;;;;;;;6184217;23;20013;-46
2021/01/10 02:57:05;;;;;;;5.38;1.90;;;;;;;;;;6183653;23;20001;-55
2021/01/10 02:59:34;;;;;;;6.97;1.60;;;;;;;;;;6157907;23;20009;-45
2021/01/10 03:02:04;;;;;;;2.53;1.38;;;;;;;;;;6184348;23;20079;-47
2021/01/10 03:04:32;;;;;;;2.97;0.82;;;;;;;;;;6184026;23;19997;-47
2021/01/10 03:07:00;;;;;;;3.35;1.10;;;;;;;;;;6184107;23;20394;-50
2021/01/10 03:09:27;;;;;;;2.95;1.05;;;;;;;;;;6185009;23;20005;-47
2021/01/10 03:11:54;;;;;;;6.07;1.02;;;;;;;;;;6186241;23;20001;-49
2021/01/10 03:14:22;;;;;;;5.07;1.05;;;;;;;;;;6185877;23;20009;-41
2021/01/10 03:16:49;;;;;;;8.00;1.17;;;;;;;;;;6159195;23;20009;-51
2021/01/10 03:19:17;;;;;;;7.93;0.98;;;;;;;;;;6185446;23;20088;-43
2021/01/10 03:21:44;;;;;;;2.45;1.33;;;;;;;;;;6185645;23;20005;-42
2021/01/10 03:24:12;;;;;;;8.85;1.08;;;;;;;;;;6186068;23;20426;-41
2021/01/10 03:26:40;;;;;;;2.50;0.90;;;;;;;;;;6185613;23;20008;-39
2021/01/10 03:29:07;;;;;;;5.50;1.13;;;;;;;;;;6185359;23;20125;-44
2021/01/10 03:31:34;;;;;;;2.13;0.77;;;;;;;;;;6185791;23;20044;-40
2021/01/10 03:34:01;;;;;;;6.25;1.38;;;;;;;;;;6184446;23;20044;-49
2021/01/10 03:36:28;;;;;;;5.07;0.90;;;;;;;;;;6185346;23;20005;-44
2021/01/10 03:38:56;;;;;;;3.05;1.02;;;;;;;;;;6184670;23;20059;-53
2021/01/10 03:41:24;;;;;;;1.95;0.80;;;;;;;;;;6184595;23;20338;-50
2021/01/10 03:43:51;;;;;;;4.75;0.90;;;;;;;;;;6185148;23;20005;-55
2021/01/10 03:46:18;;;;;;;4.55;0.93;;;;;;;;;;6184725;23;20005;-48
2021/01/10 03:48:45;;;;;;;2.15;1.00;;;;;;;;;;6184852;23;20308;-51
2021/01/10 03:51:12;;;;;;;2.47;0.93;;;;;;;;;;6185925;23;20040;-48
2021/01/10 03:53:39;;;;;;;0.85;0.70;;;;;;;;;;6185461;23;20017;-43
2021/01/10 03:56:06;;;;;;;1.83;0.90;;;;;;;;;;6185131;23;20000;-40
2021/01/10 03:58:34;;;;;;;1.65;0.80;;;;;;;;;;6185210;23;20338;-40
2021/01/10 04:01:01;;;;;;;3.40;1.10;;;;;;;;;;6185201;23;19997;-40
2021/01/10 04:03:28;;;;;;;2.53;1.13;;;;;;;;;;6184443;23;20025;-46
2021/01/10 04:05:55;;;;;;;3.67;0.85;;;;;;;;;;6183370;23;20556;-42
2021/01/10 04:08:22;;;;;;;5.72;0.82;;;;;;;;;;6185779;23;20005;-43
2021/01/10 04:10:49;;;;;;;2.78;0.80;;;;;;;;;;6185840;23;20008;-47
2021/01/10 04:13:16;;;;;;;4.60;0.85;;;;;;;;;;6185787;23;20016;-48
2021/01/10 04:15:44;;;;;;;2.35;0.80;;;;;;;;;;6185508;23;20487;-50
2021/01/10 04:18:10;;;;;;;2.20;0.77;;;;;;;;;;6185764;23;20028;-46
2021/01/10 04:20:37;;;;;;;2.40;0.90;;;;;;;;;;6158901;23;20001;-42
2021/01/10 04:23:04;;;;;;;5.78;1.10;;;;;;;;;;6186206;23;20083;-47
2021/01/10 04:25:31;;;;;;;4.20;0.82;;;;;;;;;;6186084;23;20001;-41
2021/01/10 04:27:58;;;;;;;2.30;0.80;;;;;;;;;;6185147;23;20013;-41
2021/01/10 04:30:25;;;;;;;2.80;1.30;;;;;;;;;;6185917;23;20084;-40
2021/01/10 04:32:52;;;;;;;2.30;0.98;;;;;;;;;;6185664;23;20005;-43
2021/01/10 04:35:19;;;;;;;3.95;1.13;;;;;;;;;;6159622;23;20005;-40
2021/01/10 04:37:47;;;;;;;2.53;0.80;;;;;;;;;;6186129;23;20003;-41
2021/01/10 04:40:14;;;;;;;6.00;0.90;;;;;;;;;;6186094;23;20434;-40
2021/01/10 04:42:41;;;;;;;6.85;1.35;;;;;;;;;;6186236;23;19997;-43
2021/01/10 04:45:09;;;;;;;1.60;0.80;;;;;;;;;;6186376;23;20032;-43
2021/01/10 04:47:36;;;;;;;6.22;0.80;;;;;;;;;;6186484;23;20001;-42
2021/01/10 04:50:04;;;;;;;2.85;1.05;;;;;;;;;;6186927;23;20013;-41
2021/01/10 04:52:31;;;;;;;3.10;0.93;;;;;;;;;;6186439;23;20080;-42
2021/01/10 04:55:00;;;;;;;2.50;0.70;;;;;;;;;;6186587;23;20008;-43
2021/01/10 04:57:28;;;;;;;1.92;0.68;;;;;;;;;;6186514;23;19997;-44
2021/01/10 04:59:55;;;;;;;4.28;0.80;;;;;;;;;;6186615;23;20141;-44
2021/01/10 05:02:26;;;;;;;9.73;1.58;;;;;;;;;;6185950;23;20334;-43
2021/01/10 05:04:56;;;;;;;1.17;0.80;;;;;;;;;;6186497;23;20052;-44
2021/01/10 05:07:23;;;;;;;2.00;0.95;;;;;;;;;;6186424;23;20009;-42
2021/01/10 05:09:50;;;;;;;2.63;0.80;;;;;;;;;;6186435;23;19997;-42
2021/01/10 05:12:17;;;;;;;2.72;1.00;;;;;;;;;;6186223;23;20012;-42
2021/01/10 05:14:44;;;;;;;3.00;1.05;;;;;;;;;;6186400;23;20051;-42
2021/01/10 05:17:20;;;;;;;2.78;0.80;;;;;;;;;;6159943;23;20001;-43
2021/01/10 05:19:50;;;;;;;2.72;1.05;;;;;;;;;;6186441;23;20082;-42
2021/01/10 05:22:17;;;;;;;1.50;0.82;;;;;;;;;;6186253;23;20080;-42
2021/01/10 05:24:44;;;;;;;2.35;0.93;;;;;;;;;;6186222;23;20012;-43
2021/01/10 05:27:11;;;;;;;2.20;0.90;;;;;;;;;;6159768;23;20330;-42
2021/01/10 05:29:38;;;;;;;4.22;1.10;;;;;;;;;;6185947;23;20323;-42
2021/01/10 05:32:05;;;;;;;1.58;0.90;;;;;;;;;;6186006;23;20501;-42
2021/01/10 05:34:32;;;;;;;3.15;1.02;;;;;;;;;;6185941;23;20001;-41
2021/01/10 05:37:11;;;;;;;3.97;1.05;;;;;;;;;;6186152;23;20080;-42
2021/01/10 05:39:44;;;;;;;8.32;1.08;;;;;;;;;;6186159;23;20421;-43
2021/01/10 05:42:11;;;;;;;3.38;1.17;;;;;;;;;;6186279;23;20333;-42
2021/01/10 05:44:41;;;;;;;2.33;0.80;;;;;;;;;;6185983;23;20008;-41
2021/01/10 05:47:09;;;;;;;3.15;0.95;;;;;;;;;;6186097;23;20326;-44
2021/01/10 05:49:36;;;;;;;3.15;0.80;;;;;;;;;;6185999;23;20088;-41
2021/01/10 05:52:09;;;;;;;1.35;0.95;;;;;;;;;;6186007;23;20033;-44
2021/01/10 05:54:40;;;;;;;1.52;0.80;;;;;;;;;;6185929;23;20009;-42
2021/01/10 05:57:15;;;;;;;1.50;0.88;;;;;;;;;;6185921;23;20048;-41
2021/01/10 05:59:52;;;;;;;2.72;0.85;;;;;;;;;;6159750;23;20005;-41
2021/01/10 06:02:32;;;;;;;6.53;0.88;;;;;;;;;;6185899;23;20009;-41
2021/01/10 06:05:20;;;;;;;5.43;0.90;;;;;;;;;;6185863;23;20012;-43
2021/01/10 06:07:48;;;;;;;5.40;0.80;;;;;;;;;;6185783;23;20008;-40
2021/01/10 06:10:28;;;;;;;4.10;0.90;;;;;;;;;;6185918;23;20005;-41
2021/01/10 06:13:05;;;;;;;3.22;1.50;;;;;;;;;;6185736;23;20026;-41
2021/01/10 06:15:33;;;;;;;6.80;1.20;;;;;;;;;;6185912;23;20005;-43
2021/01/10 06:18:03;;;;;;;2.03;0.90;;;;;;;;;;6185742;23;20015;-44
2021/01/10 06:20:31;;;;;;;1.42;0.80;;;;;;;;;;6186024;23;20051;-41
2021/01/10 06:22:59;;;;;;;2.92;0.98;;;;;;;;;;6185769;23;20425;-41
2021/01/10 06:25:27;;;;;;;2.05;0.95;;;;;;;;;;6185803;23;20001;-43
2021/01/10 06:28:04;;;;;;;5.38;0.77;;;;;;;;;;6185425;23;20341;-43
2021/01/10 06:30:32;;;;;;;2.88;0.85;;;;;;;;;;6185633;23;20009;-42
2021/01/10 06:33:07;;;;;;;1.38;0.80;;;;;;;;;;6185532;23;20381;-43
2021/01/10 06:35:38;;;;;;;1.67;0.95;;;;;;;;;;6185669;23;20001;-43
2021/01/10 06:38:06;;;;;;;3.60;0.98;;;;;;;;;;6185790;23;20005;-43
2021/01/10 06:40:36;;;;;;;2.72;1.10;;;;;;;;;;6185716;23;20080;-43
2021/01/10 06:43:04;;;;;;;6.93;0.88;;;;;;;;;;6185508;23;20327;-43
2021/01/10 06:45:48;;;;;;;1.80;0.90;;;;;;;;;;6185482;23;20005;-43
2021/01/10 06:48:15;;;;;;;1.90;0.77;;;;;;;;;;6185666;23;20036;-43
2021/01/10 06:50:46;;;;;;;1.75;1.00;;;;;;;;;;6185676;23;20326;-42
2021/01/10 06:53:14;;;;;;;3.85;0.88;;;;;;;;;;6185534;23;20460;-43
2021/01/10 06:55:45;;;;;;;2.78;1.10;;;;;;;;;;6185627;23;20052;-43
2021/01/10 06:58:12;;;;;;;5.97;1.27;;;;;;;;;;6185704;23;20092;-43
2021/01/10 07:00:58;;;;;;;1.15;0.43;;;;;;;;;;6185547;23;20001;-43
2021/01/10 07:03:25;;;;;;;2.67;1.00;;;;;;;;;;6185455;23;20005;-40
2021/01/10 07:06:08;;;;;;;5.45;0.98;;;;;;;;;;6185567;23;19993;-42
2021/01/10 07:08:39;;;;;;;2.95;1.02;;;;;;;;;;6185590;23;20009;-41
2021/01/10 07:11:22;;;;;;;2.15;0.75;;;;;;;;;;6185749;23;20039;-41
2021/01/10 07:13:52;;;;;;;3.13;0.85;;;;;;;;;;6185356;23;20017;-45
2021/01/10 07:16:23;;;;;;;1.73;1.08;;;;;;;;;;6185478;23;20008;-43
2021/01/10 07:18:50;;;;;;;2.65;1.23;;;;;;;;;;6185452;23;20008;-43
2021/01/10 07:21:36;;;;;;;2.45;1.10;;;;;;;;;;6185476;23;20006;-41
2021/01/10 07:24:26;;;;;;;1.80;0.90;;;;;;;;;;6185648;23;20306;-41
2021/01/10 07:26:54;;;;;;;5.22;1.20;;;;;;;;;;6185523;23;20084;-42
2021/01/10 07:29:46;;;;;;;1.52;0.60;;;;;;;;;;6185272;23;20020;-43
2021/01/10 07:32:15;;;;;;;3.35;1.00;;;;;;;;;;6185365;23;20092;-43
2021/01/10 07:34:45;;;;;;;2.72;0.75;;;;;;;;;;6185393;23;20572;-44
2021/01/10 07:37:18;;;;;;;0.88;0.55;;;;;;;;;;6185265;23;20024;-42
2021/01/10 07:39:52;;;;;;;2.97;1.15;;;;;;;;;;6185383;23;20386;-42
2021/01/10 07:42:21;;;;;;;2.58;0.90;;;;;;;;;;6185435;23;20005;-43
2021/01/10 07:44:52;;;;;;;1.77;0.60;;;;;;;;;;6185394;23;20489;-42
2021/01/10 07:47:39;;;;;;;1.63;0.70;;;;;;;;;;6185294;23;20005;-42
2021/01/10 07:50:10;;;;;;;1.55;0.57;;;;;;;;;;6185230;23;20402;-41
2021/01/10 07:52:46;;;;;;;2.20;0.73;;;;;;;;;;6185307;23;20005;-41
2021/01/10 07:55:17;;;;;;;1.67;0.70;;;;;;;;;;6185322;23;20009;-44
2021/01/10 07:57:45;;;;;;;3.17;0.57;;;;;;;;;;6187000;23;20002;-42
2021/01/10 08:00:13;;;;;;;2.13;0.75;;;;;;;;;;6160790;23;20005;-43
2021/01/10 08:02:53;;;;;;;2.60;0.50;;;;;;;;;;6187070;23;20334;-44
2021/01/10 08:05:22;;;;;;;1.77;0.82;;;;;;;;;;6187061;23;20040;-43
2021/01/10 08:08:16;;;;;;;4.78;0.80;;;;;;;;;;6160780;23;20001;-43
2021/01/10 08:10:56;;;;;;;1.30;0.85;;;;;;;;;;6182316;23;20369;-42
2021/01/10 08:13:32;;;;;;;1.48;0.65;;;;;;;;;;6186751;23;20012;-43
2021/01/10 08:15:59;;;;;;;3.83;0.90;;;;;;;;;;6186840;23;20001;-44
2021/01/10 08:18:29;;;;;;;0.88;0.57;;;;;;;;;;6186848;23;20009;-44
2021/01/10 08:20:56;;;;;;;4.13;0.93;;;;;;;;;;6187020;23;20318;-46
2021/01/10 08:23:24;;;;;;;2.50;0.80;;;;;;;;;;6186818;23;20310;-56
2021/01/10 08:26:00;;;;;;;2.30;0.73;;;;;;;;;;6186708;23;19997;-57
2021/01/10 08:28:28;;;;;;;1.45;0.68;;;;;;;;;;6186500;23;20014;-55
2021/01/10 08:31:01;;;;;;;1.73;0.70;;;;;;;;;;6186685;23;20001;-57
2021/01/10 08:33:28;;;;;;;3.33;0.80;;;;;;;;;;6186843;23;20084;-57
2021/01/10 08:35:55;;;;;;;1.25;0.60;;;;;;;;;;6186738;23;20001;-55
2021/01/10 08:38:22;;;;;;;2.05;0.80;;;;;;;;;;6186824;23;20008;-58
2021/01/10 08:40:57;;;;;;;1.63;0.63;;;;;;;;;;6160400;23;20005;-57
2021/01/10 08:43:24;;;;;;;2.75;0.60;;;;;;;;;;6186828;23;20386;-57
2021/01/10 08:45:51;;;;;;;2.22;0.65;;;;;;;;;;6186618;23;20001;-58
2021/01/10 08:48:18;;;;;;;1.65;0.63;;;;;;;;;;6186716;23;20005;-55
2021/01/10 08:50:45;;;;;;;4.15;0.88;;;;;;;;;;6186800;23;20151;-55
2021/01/10 08:53:12;;;;;;;5.53;1.33;;;;;;;;;;6186391;23;20013;-54
2021/01/10 08:55:43;;;;;;;3.72;0.60;;;;;;;;;;6186497;23;20009;-56
2021/01/10 08:58:11;;;;;;;8.23;2.67;;;;;;;;;;6186527;23;20043;-57
2021/01/10 09:00:42;;;;;;;3.95;1.15;;;;;;;;;;6186516;23;20005;-58
2021/01/10 09:03:12;;;;;;;2.58;0.90;;;;;;;;;;6186535;23;20426;-56
2021/01/10 09:05:40;;;;;;;8.35;1.10;;;;;;;;;;6186394;23;20414;-57
2021/01/10 09:08:08;;;;;;;0.88;0.68;;;;;;;;;;6186435;23;20425;-57
2021/01/10 09:10:38;;;;;;;6.22;1.50;;;;;;;;;;6186516;23;20005;-57
2021/01/10 09:13:08;;;;;;;1.80;1.10;;;;;;;;;;6186446;23;20419;-56
2021/01/10 09:15:39;;;;;;;4.82;1.25;;;;;;;;;;6186225;23;20029;-58
2021/01/10 09:18:10;;;;;;;4.07;1.00;;;;;;;;;;6186316;23;20005;-54
2021/01/10 09:20:42;;;;;;;6.95;1.20;;;;;;;;;;6186320;23;20001;-56
2021/01/10 09:23:10;;;;;;;2.17;1.02;;;;;;;;;;6186294;23;20060;-53
2021/01/10 09:25:37;;;;;;;2.65;1.00;;;;;;;;;;6186303;23;20071;-55
2021/01/10 09:28:07;;;;;;;1.52;0.90;;;;;;;;;;6186049;23;20422;-54
2021/01/10 09:30:34;;;;;;;2.58;0.70;;;;;;;;;;6186200;23;20009;-56
2021/01/10 09:33:04;;;;;;;1.48;0.88;;;;;;;;;;6185987;23;20016;-49
2021/01/10 09:35:51;;;;;;;3.30;0.80;;;;;;;;;;6186159;23;20401;-49
2021/01/10 09:38:19;;;;;;;1.95;1.00;;;;;;;;;;6185842;23;20013;-53
2021/01/10 09:41:05;;;;;;;2.55;1.30;;;;;;;;;;6186147;23;20009;-42
2021/01/10 09:43:48;;;;;;;5.30;1.67;;;;;;;;;;6186023;23;20005;-42
2021/01/10 09:46:29;;;;;;;4.70;1.75;;;;;;;;;;6185910;23;20326;-43
2021/01/10 09:49:01;;;;;;;3.15;1.02;;;;;;;;;;6186274;23;20001;-41
2021/01/10 09:51:44;;;;;;;5.40;1.38;;;;;;;;;;6186031;23;20020;-43
2021/01/10 09:54:27;;;;;;;3.22;1.08;;;;;;;;;;6185845;23;20017;-42
2021/01/10 09:56:56;;;;;;;5.90;0.90;;;;;;;;;;6185894;23;20080;-41
2021/01/10 09:59:32;;;;;;;1.42;0.80;;;;;;;;;;6185962;23;20076;-43
2021/01/10 10:02:08;;;;;;;0.90;0.50;;;;;;;;;;6186020;23;20098;-42
2021/01/10 10:04:35;;;;;;;0.98;0.38;;;;;;;;;;6186011;23;20068;-43
2021/01/10 10:07:02;;;;;;;2.92;0.77;;;;;;;;;;6185912;23;20005;-42
2021/01/10 10:10:04;;;;;;;0.63;0.50;;;;;;;;;;6185860;23;20071;-45
2021/01/10 10:12:32;;;;;;;1.85;0.65;;;;;;;;;;6066080;23;20062;-42
2021/01/10 10:15:00;;;;;;;1.27;0.50;;;;;;;;;;6163070;23;20087;-43
2021/01/10 10:17:28;;;;;;;1.35;0.70;;;;;;;;;;6185721;23;20441;-41
2021/01/10 10:19:55;;;;;;;1.55;0.82;;;;;;;;;;6185565;23;20015;-40
2021/01/10 10:22:40;;;;;;;4.97;0.73;;;;;;;;;;6185762;23;20005;-43
2021/01/10 10:25:08;;;;;;;1.75;0.90;;;;;;;;;;6185918;23;20028;-43
2021/01/10 10:27:36;;;;;;;3.38;0.70;;;;;;;;;;6185437;23;20058;-42
2021/01/10 10:30:04;;;;;;;1.00;0.40;;;;;;;;;;6185809;23;20121;-42
2021/01/10 10:32:31;;;;;;;2.03;0.52;;;;;;;;;;6185619;23;20068;-42
2021/01/10 10:34:58;;;;;;;1.13;0.90;;;;;;;;;;6185604;23;20009;-43
2021/01/10 10:37:25;;;;;;;2.20;0.60;;;;;;;;;;6185606;23;20012;-43
2021/01/10 10:39:52;;;;;;;1.40;0.70;;;;;;;;;;6185544;23;20005;-43
2021/01/10 10:42:21;;;;;;;1.10;0.70;;;;;;;;;;6185691;23;20303;-42
2021/01/10 10:44:48;;;;;;;4.25;0.70;;;;;;;;;;6185720;23;20318;-42
2021/01/10 10:47:16;;;;;;;0.60;0.60;;;;;;;;;;6185696;23;20299;-43
2021/01/10 10:49:43;;;;;;;1.52;0.50;;;;;;;;;;6185566;23;20315;-42
2021/01/10 10:52:11;;;;;;;5.45;0.50;;;;;;;;;;6185468;23;20009;-42
2021/01/10 10:54:39;;;;;;;2.42;0.60;;;;;;;;;;6185689;23;20016;-43
2021/01/10 10:57:09;;;;;;;1.67;1.00;;;;;;;;;;6185425;23;20505;-54
2021/01/10 10:59:38;;;;;;;3.72;1.58;;;;;;;;;;6185570;23;20032;-58
2021/01/10 11:02:06;;;;;;;4.93;1.55;;;;;;;;;;6185715;23;20318;-57
2021/01/10 11:04:33;;;;;;;2.08;1.25;;;;;;;;;;6185502;23;20032;-58
2021/01/10 11:07:01;;;;;;;2.75;1.00;;;;;;;;;;6185449;23;20009;-57
2021/01/10 11:09:28;;;;;;;1.80;0.90;;;;;;;;;;6185567;23;20418;-58
2021/01/10 11:11:55;;;;;;;2.40;0.98;;;;;;;;;;6185488;23;20429;-58
2021/01/10 11:14:22;;;;;;;2.15;0.80;;;;;;;;;;6185448;23;20371;-58
2021/01/10 11:16:51;;;;;;;3.78;1.00;;;;;;;;;;6185429;23;20009;-51
2021/01/10 11:19:18;;;;;;;1.23;0.77;;;;;;;;;;6185701;23;20031;-57
2021/01/10 11:21:46;;;;;;;1.05;0.65;;;;;;;;;;6185574;23;20005;-45
2021/01/10 11:24:14;;;;;;;4.68;0.70;;;;;;;;;;6159095;23;20370;-43
2021/01/10 11:26:42;;;;;;;1.75;0.80;;;;;;;;;;6185217;23;20333;-42
2021/01/10 11:29:10;;;;;;;1.38;0.70;;;;;;;;;;6185348;23;20013;-44
2021/01/10 11:31:37;;;;;;;1.55;0.65;;;;;;;;;;6186653;23;20369;-43
2021/01/10 11:34:04;;;;;;;3.33;0.93;;;;;;;;;;6187182;23;20017;-43
2021/01/10 11:36:32;;;;;;;2.88;1.20;;;;;;;;;;6187401;23;20480;-42
2021/01/10 11:38:59;;;;;;;2.72;0.90;;;;;;;;;;6187250;23;20341;-56
2021/01/10 11:41:26;;;;;;;3.83;0.65;;;;;;;;;;6187293;23;20005;-58
2021/01/10 11:43:54;;;;;;;1.77;0.70;;;;;;;;;;6187225;23;20012;-55
2021/01/10 11:46:22;;;;;;;2.88;1.13;;;;;;;;;;6187102;23;20016;-56
2021/01/10 11:48:50;;;;;;;0.68;0.55;;;;;;;;;;6187257;23;20365;-57
2021/01/10 11:51:18;;;;;;;1.83;0.80;;;;;;;;;;6187329;23;20009;-54
2021/01/10 11:53:45;;;;;;;2.85;0.98;;;;;;;;;;6187118;23;20020;-57
2021/01/10 11:56:12;;;;;;;2.85;0.80;;;;;;;;;;6187051;23;20071;-48
2021/01/10 11:58:41;;;;;;;2.72;0.80;;;;;;;;;;6187183;23;20008;-56
2021/01/10 12:01:08;;;;;;;2.42;0.93;;;;;;;;;;6187080;23;20005;-56
2021/01/10 12:03:35;;;;;;;0.75;0.63;;;;;;;;;;6186966;23;20013;-56
2021/01/10 12:06:03;;;;;;;2.58;0.85;;;;;;;;;;6186922;23;20031;-58
2021/01/10 12:08:30;;;;;;;1.75;0.73;;;;;;;;;;6187055;23;20001;-42
2021/01/10 12:10:57;;;;;;;1.02;0.90;;;;;;;;;;6186872;23;20322;-43
2021/01/10 12:13:24;;;;;;;1.35;0.70;;;;;;;;;;6187062;23;20429;-42
2021/01/10 12:15:51;;;;;;;2.00;0.90;;;;;;;;;;6186764;23;20418;-42
2021/01/10 12:18:18;;;;;;;1.00;0.60;;;;;;;;;;6187052;23;20005;-39
2021/01/10 12:20:46;;;;;;;1.48;0.90;;;;;;;;;;6186872;23;20076;-43
2021/01/10 12:23:12;;;;;;;2.25;0.95;;;;;;;;;;6186978;23;20032;-43
2021/01/10 12:25:39;;;;;;;2.95;0.80;;;;;;;;;;6186759;23;20397;-43
2021/01/10 12:28:06;;;;;;;2.10;0.80;;;;;;;;;;6186717;23;20422;-42
2021/01/10 12:30:33;;;;;;;0.73;0.50;;;;;;;;;;6186679;23;20019;-43
2021/01/10 12:33:00;;;;;;;2.97;1.02;;;;;;;;;;6186742;23;20333;-39
2021/01/10 12:35:27;;;;;;;1.35;0.90;;;;;;;;;;6186607;23;20002;-43
2021/01/10 12:37:54;;;;;;;2.95;0.95;;;;;;;;;;6186830;23;20001;-43
2021/01/10 12:40:21;;;;;;;3.20;0.85;;;;;;;;;;6186843;23;19997;-42
2021/01/10 12:42:49;;;;;;;2.85;0.93;;;;;;;;;;6186456;23;20028;-42
2021/01/10 12:45:17;;;;;;;8.80;0.93;;;;;;;;;;6186590;23;20004;-42
2021/01/10 12:47:44;;;;;;;2.53;0.90;;;;;;;;;;6186994;23;20009;-42
2021/01/10 12:50:12;;;;;;;2.00;0.90;;;;;;;;;;6186682;23;20001;-42
2021/01/10 12:52:39;;;;;;;1.75;0.85;;;;;;;;;;6186493;23;20016;-43
2021/01/10 12:55:07;;;;;;;1.17;0.90;;;;;;;;;;6186418;23;20322;-41
2021/01/10 12:57:35;;;;;;;1.17;0.80;;;;;;;;;;6186554;23;20449;-42
2021/01/10 13:00:05;;;;;;;3.85;0.77;;;;;;;;;;6186583;23;20426;-44
2021/01/10 13:02:32;;;;;;;2.22;0.90;;;;;;;;;;6186601;23;20001;-41
2021/01/10 13:04:59;;;;;;;1.25;0.85;;;;;;;;;;6186230;23;20456;-40
2021/01/10 13:07:26;;;;;;;1.10;0.50;;;;;;;;;;6185604;23;20016;-41
2021/01/10 13:09:53;;;;;;;1.55;0.90;;;;;;;;;;6186240;23;20005;-40
2021/01/10 13:12:20;;;;;;;3.22;0.60;;;;;;;;;;6186070;23;20009;-41
2021/01/10 13:14:47;;;;;;;1.38;0.85;;;;;;;;;;6185853;23;20024;-41
2021/01/10 13:17:14;;;;;;;0.98;0.80;;;;;;;;;;6186009;23;20425;-42
2021/01/10 13:19:44;;;;;;;3.30;0.70;;;;;;;;;;6186004;23;20052;-44
2021/01/10 13:22:11;;;;;;;1.35;0.77;;;;;;;;;;6185905;23;20012;-43
2021/01/10 13:24:38;;;;;;;1.38;0.60;;;;;;;;;;6185959;23;20008;-40
2021/01/10 13:27:06;;;;;;;0.98;0.60;;;;;;;;;;6185846;23;20001;-43
2021/01/10 13:29:33;;;;;;;2.60;0.80;;;;;;;;;;6185696;23;20029;-40
2021/01/10 13:32:01;;;;;;;0.60;0.52;;;;;;;;;;6185847;23;20402;-41
2021/01/10 13:34:28;;;;;;;5.05;0.90;;;;;;;;;;6185836;23;20333;-45
2021/01/10 13:37:01;;;;;;;3.25;0.77;;;;;;;;;;6185748;23;20028;-42
2021/01/10 13:39:28;;;;;;;1.25;0.90;;;;;;;;;;6185896;23;20047;-41
2021/01/10 13:41:55;;;;;;;1.63;1.02;;;;;;;;;;6185575;23;20013;-43
2021/01/10 13:44:22;;;;;;;0.63;0.38;;;;;;;;;;6185576;23;20075;-41
2021/01/10 13:46:49;;;;;;;1.00;0.65;;;;;;;;;;6185466;23;20084;-40
2021/01/10 13:49:17;;;;;;;4.90;0.80;;;;;;;;;;6185516;23;20001;-42
2021/01/10 13:54:22;;;;;;;1.85;0.68;;;;;;;;;;6199539;23;20025;-57
2021/01/10 13:56:49;;;;;;;2.00;0.70;;;;;;;;;;6189104;23;20079;-58
2021/01/10 13:59:16;;;;;;;1.00;0.73;;;;;;;;;;6215012;23;20376;-59
2021/01/10 14:01:43;;;;;;;0.90;0.52;;;;;;;;;;6214278;23;20000;-59
2021/01/10 14:04:10;;;;;;;1.15;0.50;;;;;;;;;;6213867;23;20321;-59
2021/01/10 14:06:37;;;;;;;1.63;0.70;;;;;;;;;;6213590;23;20364;-59
2021/01/10 14:09:05;;;;;;;5.18;0.80;;;;;;;;;;6214166;23;20008;-59
2021/01/10 14:11:32;;;;;;;0.77;0.40;;;;;;;;;;6213919;23;20036;-56
2021/01/10 14:14:01;;;;;;;0.85;0.57;;;;;;;;;;6213628;23;20018;-57
2021/01/10 14:16:28;;;;;;;2.30;0.70;;;;;;;;;;6211888;23;20000;-58
2021/01/10 14:18:57;;;;;;;0.88;0.60;;;;;;;;;;6213388;23;20001;-58
2021/01/10 14:21:24;;;;;;;0.82;0.60;;;;;;;;;;6212614;23;20000;-59
2021/01/10 14:23:51;;;;;;;2.65;0.70;;;;;;;;;;6212371;23;20046;-55
2021/01/10 14:26:30;;;;;;;4.20;1.27;;;;;;;;;;6213228;23;20000;-46
2021/01/10 14:28:58;;;;;;;1.75;0.70;;;;;;;;;;6213691;23;20050;-50
2021/01/10 14:31:25;;;;;;;3.38;0.60;;;;;;;;;;6212818;23;20413;-59
2021/01/10 14:33:52;;;;;;;2.38;0.82;;;;;;;;;;6212799;23;20009;-58
2021/01/10 14:36:19;;;;;;;2.85;0.93;;;;;;;;;;6213100;23;20020;-60
2021/01/10 14:38:46;;;;;;;1.30;0.73;;;;;;;;;;6212198;23;20009;-59
2021/01/10 14:41:21;;;;;;;2.38;0.68;;;;;;;;;;6212543;23;20465;-58
2021/01/10 14:43:48;;;;;;;3.13;0.98;;;;;;;;;;6212174;23;20420;-59
2021/01/10 14:46:21;;;;;;;0.82;0.60;;;;;;;;;;6213141;23;20020;-55
2021/01/10 14:48:49;;;;;;;2.42;1.25;;;;;;;;;;6212915;23;20001;-46
2021/01/10 14:51:16;;;;;;;2.58;0.90;;;;;;;;;;6213105;23;20005;-43
2021/01/10 14:53:44;;;;;;;1.33;0.75;;;;;;;;;;6212856;23;20082;-45
2021/01/10 14:56:11;;;;;;;4.93;1.27;;;;;;;;;;6212806;23;20383;-44
2021/01/10 14:58:39;;;;;;;1.55;0.85;;;;;;;;;;6212844;23;20031;-44